F/V Vivaldi — FQLH — position and weather

sailwx.info

Track history (hours):
 
Tides and Currents Weather Stations Pressure Air Temp Water Temp Dewpoint Dewpoint Depression Visibility Wind Speed Wind Dir Waves Ship Positions

F/V Vivaldi

Last reported at 2017-Dec-10 16:27 UTC. Time now 2017-Dec-12 12:31 UTC.
Position N 43°20' W 001°56'.

Length 23 m.

Type: Fishing. MMSI: 227981000.

Date/timePositionNaut miles runAvg speedWind from/ knotsBaromVisibWave heightAir tempDewpointWater temp
2017-Dec-10 16:27N 43°20' W 001°56'4 8.4
2017-Dec-10 16:00N 43°24' W 001°56'4 8.8
2017-Dec-10 15:30N 43°28' W 001°56'4 8.5
2017-Dec-10 15:00N 43°33' W 001°56'4 8.7
2017-Dec-10 14:30N 43°37' W 001°56'4 8.8
2017-Dec-10 14:00N 43°41' W 001°56'4 8.7
2017-Dec-10 13:30N 43°46' W 001°56'4 8.4
2017-Dec-10 13:00N 43°50' W 001°56'4 7.7
2017-Dec-10 12:30N 43°54' W 001°56'4 7.4
2017-Dec-10 12:00N 43°57' W 001°56'4 7.6
2017-Dec-10 11:30N 44°01' W 001°56'3 6.7
2017-Dec-10 11:00N 44°05' W 001°56'1 2.7
2017-Dec-10 10:30N 44°06' W 001°56'2 3.1
2017-Dec-10 10:00N 44°07' W 001°55'2 3.5
2017-Dec-10 09:30N 44°09' W 001°54'16 1.4
2017-Dec-09 21:47N 44°25' W 001°54'2 0.1
2017-Dec-09 04:21N 44°27' W 001°52'1 3.4
2017-Dec-09 03:59N 44°26' W 001°52'2 3.4
2017-Dec-09 03:30N 44°24' W 001°52'9 3.4
2017-Dec-09 00:56N 44°15' W 001°54'2 3.7
2017-Dec-09 00:30N 44°14' W 001°54'2 0.2
2017-Dec-08 15:31N 44°15' W 001°53'1 3.2
2017-Dec-08 15:20N 44°14' W 001°53'1 1.8
2017-Dec-08 15:00N 44°14' W 001°53'2 3.4
2017-Dec-08 14:27N 44°12' W 001°54'4 3.3
2017-Dec-08 13:21N 44°08' W 001°53'1 3.3
2017-Dec-08 12:59N 44°07' W 001°53'2 3.3
2017-Dec-08 12:29N 44°06' W 001°52'2 3.3
2017-Dec-08 12:00N 44°05' W 001°50'2 3.2
2017-Dec-08 11:30N 44°03' W 001°49'2 3.2
2017-Dec-08 10:52N 44°01' W 001°49'12 2.9
2017-Dec-08 06:30N 44°14' W 001°50'2 1.9
2017-Dec-08 05:14N 44°16' W 001°52'1 3.4
2017-Dec-08 04:58N 44°15' W 001°52'2 3.5
2017-Dec-08 04:30N 44°13' W 001°52'2 3.3
2017-Dec-08 03:59N 44°11' W 001°53'5 3.4
2017-Dec-08 02:35N 44°07' W 001°53'1 3.4
2017-Dec-08 02:19N 44°06' W 001°53'1 3.4
2017-Dec-08 01:54N 44°04' W 001°53'1 3.3
2017-Dec-08 01:30N 44°03' W 001°53'2 3.4
2017-Dec-08 00:55N 44°01' W 001°53'2 3.7
2017-Dec-08 00:26N 44°00' W 001°51'14 3.0
2017-Dec-07 19:49N 44°14' W 001°51'1 3.6
2017-Dec-07 19:30N 44°14' W 001°49'1 2.1
2017-Dec-07 19:00N 44°13' W 001°49'2 3.2
2017-Dec-07 18:30N 44°12' W 001°50'2 3.2
2017-Dec-07 18:00N 44°10' W 001°51'2 3.2
2017-Dec-07 17:29N 44°09' W 001°51'2 3.3
2017-Dec-07 16:54N 44°07' W 001°51'1 3.3
2017-Dec-07 16:30N 44°05' W 001°51'2 3.2
2017-Dec-07 16:00N 44°04' W 001°51'2 3.6
2017-Dec-07 15:26N 44°02' W 001°50'1 1.3
2017-Dec-07 14:40N 44°03' W 001°50'1 3.5
2017-Dec-07 14:25N 44°04' W 001°50'3 3.4
2017-Dec-07 13:29N 44°07' W 001°50'2 3.5
2017-Dec-07 13:00N 44°09' W 001°50'2 3.5
2017-Dec-07 12:25N 44°10' W 001°51'2 3.5
2017-Dec-07 11:55N 44°12' W 001°52'2 3.5
2017-Dec-07 11:18N 44°14' W 001°53'1 3.3
2017-Dec-07 11:00N 44°15' W 001°53'2 2.7
2017-Dec-07 10:11N 44°17' W 001°51'12 3.4
2017-Dec-07 06:35N 44°29' W 001°50'1 3.5
2017-Dec-07 06:26N 44°30' W 001°50'4 1.8
2017-Dec-07 04:20N 44°26' W 001°52'1 3.6
2017-Dec-07 04:00N 44°25' W 001°52'2 3.6
2017-Dec-07 03:30N 44°23' W 001°52'2 3.5
2017-Dec-07 03:00N 44°21' W 001°52'6 3.5
2017-Dec-07 01:12N 44°15' W 001°50'1 3.6
2017-Dec-07 00:59N 44°15' W 001°49'2 3.7
2017-Dec-07 00:30N 44°14' W 001°47'2 3.6
2017-Dec-07 00:00N 44°14' W 001°44'4 2.7
2017-Dec-06 22:23N 44°18' W 001°42'1 3.6
2017-Dec-06 22:00N 44°19' W 001°42'2 3.6
2017-Dec-06 21:30N 44°21' W 001°41'2 3.5
2017-Dec-06 21:00N 44°23' W 001°41'  
2017-Dec-04 10:30N 44°24' W 001°27'2 4.7
2017-Dec-04 10:00N 44°21' W 001°27'3 4.7
2017-Dec-04 09:28N 44°19' W 001°27'4 4.6
2017-Dec-04 08:36N 44°15' W 001°28'0 4.6
2017-Dec-04 08:30N 44°14' W 001°28'2 4.5
2017-Dec-04 08:00N 44°12' W 001°28'2 4.4
2017-Dec-04 07:30N 44°10' W 001°29'4 7.6
2017-Dec-04 07:00N 44°06' W 001°30'510.4
2017-Dec-04 06:30N 44°02' W 001°33'710.4
2017-Dec-04 05:52N 43°56' W 001°37'510.7
2017-Dec-04 05:24N 43°51' W 001°39'410.5
2017-Dec-04 05:00N 43°47' W 001°41'610.4
2017-Dec-04 04:25N 43°41' W 001°44'410.3
2017-Dec-04 04:00N 43°37' W 001°47'1410.4
2017-Dec-04 02:42N 43°25' W 001°53'310.3
2017-Dec-04 02:27N 43°22' W 001°55'2 0.7
2017-Dec-03 23:08N 43°20' W 001°56'1 9.7
2017-Dec-03 23:00N 43°21' W 001°56'610.3
2017-Dec-03 22:24N 43°27' W 001°53'410.2
2017-Dec-03 22:00N 43°31' W 001°52'510.3
2017-Dec-03 21:30N 43°36' W 001°49'510.3
2017-Dec-03 21:00N 43°41' W 001°47'510.2
2017-Dec-03 20:30N 43°46' W 001°45'510.1
2017-Dec-03 20:00N 43°50' W 001°42'5 9.6
2017-Dec-03 19:30N 43°55' W 001°40'5 9.6
2017-Dec-03 19:00N 43°59' W 001°37'5 9.6
2017-Dec-03 18:30N 44°04' W 001°35'5 9.8
2017-Dec-03 18:00N 44°08' W 001°32'5 9.9
2017-Dec-03 17:29N 44°13' W 001°29'5 9.8
2017-Dec-03 17:00N 44°17' W 001°27'0 0.7
2017-Dec-03 16:27N 44°18' W 001°27'1 2.2
2017-Dec-03 15:57N 44°19' W 001°27'2 4.3
2017-Dec-03 15:28N 44°21' W 001°27'2 4.4
2017-Dec-03 15:00N 44°23' W 001°27'2 4.5
2017-Dec-03 14:30N 44°25' W 001°27'2 4.1
2017-Dec-03 14:00N 44°27' W 001°26'0 0.7
2017-Dec-03 13:30N 44°27' W 001°26'0 0.5
2017-Dec-03 12:56N 44°27' W 001°26'0 0.5
2017-Dec-03 12:30N 44°27' W 001°26'0 0.4
2017-Dec-03 12:00N 44°27' W 001°27'0 0.1
2017-Dec-03 11:26N 44°27' W 001°27'1 2.6
2017-Dec-03 11:00N 44°26' W 001°26'2 4.1
2017-Dec-03 10:30N 44°24' W 001°27'2 4.5
2017-Dec-03 10:00N 44°22' W 001°27'2 3.5
2017-Dec-03 09:30N 44°24' W 001°27'0 0.4
2017-Dec-03 09:00N 44°24' W 001°28'2 3.4
2017-Dec-03 08:30N 44°22' W 001°27'2 4.5
2017-Dec-03 08:00N 44°20' W 001°27'2 4.5
2017-Dec-03 07:30N 44°18' W 001°27'2 4.6
2017-Dec-03 07:00N 44°15' W 001°27'5 9.3
2017-Dec-03 06:30N 44°11' W 001°29'510.3
2017-Dec-03 06:00N 44°06' W 001°32'510.3
2017-Dec-03 05:29N 44°01' W 001°35'510.5
2017-Dec-03 05:00N 43°56' W 001°37'510.8
2017-Dec-03 04:30N 43°51' W 001°40'510.8
2017-Dec-03 04:00N 43°46' W 001°42'510.2
2017-Dec-03 03:28N 43°41' W 001°45'510.2
2017-Dec-03 03:00N 43°37' W 001°47'510.2
2017-Dec-03 02:28N 43°32' W 001°50'710.4
2017-Dec-03 01:47N 43°25' W 001°54'410.5
2017-Dec-03 01:21N 43°21' W 001°56'1 0.3
2017-Dec-02 23:04N 43°20' W 001°56'0 8.9
2017-Dec-02 23:00N 43°21' W 001°56'510.1
2017-Dec-02 22:30N 43°25' W 001°53'5 9.9
2017-Dec-02 22:00N 43°30' W 001°51'510.1
2017-Dec-02 21:31N 43°35' W 001°48'510.1
2017-Dec-02 21:00N 43°39' W 001°46'510.2
2017-Dec-02 20:29N 43°44' W 001°43'5 9.9
2017-Dec-02 19:59N 43°49' W 001°41'5 9.9
2017-Dec-02 19:29N 43°54' W 001°38'510.0
2017-Dec-02 18:59N 43°58' W 001°36'510.0
2017-Dec-02 18:29N 44°03' W 001°33'1010.1
2017-Dec-02 17:31N 44°12' W 001°29'0 9.8
2017-Dec-02 17:30N 44°12' W 001°29'2 4.1
2017-Dec-02 16:58N 44°14' W 001°28'2 3.9
2017-Dec-02 16:30N 44°16' W 001°27'2 4.4
2017-Dec-02 16:00N 44°18' W 001°27'2 4.3
2017-Dec-02 15:29N 44°20' W 001°27'1 1.7
2017-Dec-02 14:59N 44°20' W 001°27'1 1.6
2017-Dec-02 14:30N 44°19' W 001°27'1 2.6
2017-Dec-02 14:00N 44°20' W 001°27'2 4.6
2017-Dec-02 13:30N 44°22' W 001°26'1 2.0
2017-Dec-02 13:00N 44°23' W 001°27'2 3.8
2017-Dec-02 12:30N 44°21' W 001°27'2 3.2
2017-Dec-02 12:00N 44°20' W 001°27'1 2.9
2017-Dec-02 11:30N 44°21' W 001°27'2 4.4
2017-Dec-02 10:59N 44°24' W 001°27'1 2.2
2017-Dec-02 10:30N 44°25' W 001°27'1 1.4
2017-Dec-02 10:00N 44°24' W 001°27'2 3.9
2017-Dec-02 09:30N 44°22' W 001°28'2 3.9
2017-Dec-02 09:00N 44°20' W 001°27'3 5.3
2017-Dec-02 08:30N 44°20' W 001°24'1 2.2
2017-Dec-02 08:00N 44°18' W 001°24'2 3.9
2017-Dec-02 07:30N 44°17' W 001°24'2 3.9
2017-Dec-02 07:00N 44°15' W 001°24'0 1.0
2017-Dec-02 06:30N 44°15' W 001°24'2 3.7
2017-Dec-02 06:00N 44°17' W 001°25'2 3.5
2017-Dec-02 05:30N 44°15' W 001°24'2 3.4
2017-Dec-02 05:00N 44°13' W 001°24'2 3.6
2017-Dec-02 04:30N 44°12' W 001°24'2 3.6
2017-Dec-02 04:00N 44°10' W 001°24'2 3.8
2017-Dec-02 03:30N 44°08' W 001°24'2 3.1
2017-Dec-02 03:00N 44°06' W 001°24'1 2.7
2017-Dec-02 02:30N 44°05' W 001°25'0 1.0
2017-Dec-02 02:00N 44°05' W 001°25'1 2.4
2017-Dec-02 01:30N 44°03' W 001°25'2 3.6
2017-Dec-02 01:00N 44°02' W 001°26'2 3.7
2017-Dec-02 00:30N 43°60' W 001°26'2 3.7
2017-Dec-02 00:00N 43°58' W 001°27'2 3.9
2017-Dec-01 23:30N 43°56' W 001°28'2 4.0
2017-Dec-01 23:00N 43°54' W 001°28'2 4.0
2017-Dec-01 22:30N 43°52' W 001°29'2 3.9
2017-Dec-01 22:00N 43°50' W 001°29'2 3.8
2017-Dec-01 21:30N 43°49' W 001°30'2 3.0
2017-Dec-01 21:01N 43°49' W 001°32'0 0.3
2017-Dec-01 20:30N 43°49' W 001°32'1 2.5
2017-Dec-01 20:00N 43°49' W 001°31'1 2.5
2017-Dec-01 19:30N 43°49' W 001°29'1 2.5
2017-Dec-01 19:00N 43°50' W 001°29'0 0.3
2017-Dec-01 18:30N 43°51' W 001°29'1 1.6
2017-Dec-01 17:35N 43°52' W 001°31'0 2.2
2017-Dec-01 17:30N 43°51' W 001°31'1 2.1
2017-Dec-01 17:00N 43°50' W 001°30'0 0.4
2017-Dec-01 16:31N 43°51' W 001°30'1 1.8
2017-Dec-01 15:53N 43°50' W 001°30'10 6.8
2017-Dec-01 14:26N 43°41' W 001°37'4 9.2
2017-Dec-01 14:00N 43°38' W 001°40'4 8.7
2017-Dec-01 13:29N 43°34' W 001°43'4 8.5
2017-Dec-01 13:00N 43°31' W 001°46'6 9.1
2017-Dec-01 12:22N 43°26' W 001°52'4 9.3
2017-Dec-01 11:57N 43°23' W 001°54'3 0.2
2017-Nov-30 23:30N 43°20' W 001°56'4 9.2
2017-Nov-30 23:00N 43°24' W 001°54'5 9.6
2017-Nov-30 22:30N 43°29' W 001°51'5 9.8
2017-Nov-30 22:00N 43°33' W 001°48'5 9.7
2017-Nov-30 21:30N 43°38' W 001°46'5 9.8
2017-Nov-30 21:00N 43°42' W 001°43'5 9.8
2017-Nov-30 20:30N 43°47' W 001°40'510.0
2017-Nov-30 20:00N 43°51' W 001°37'510.0
2017-Nov-30 19:30N 43°56' W 001°35'510.0
2017-Nov-30 19:00N 44°00' W 001°32'510.1
2017-Nov-30 18:30N 44°05' W 001°29'5 9.6
2017-Nov-30 17:59N 44°09' W 001°26'1 2.7
2017-Nov-30 17:30N 44°11' W 001°26'2 3.9
2017-Nov-30 17:00N 44°12' W 001°24'2 3.9
2017-Nov-30 16:30N 44°14' W 001°24'  
Track history (hours):
 
Tides and Currents Weather Stations Pressure Air Temp Water Temp Dewpoint Dewpoint Depression Visibility Wind Speed Wind Dir Waves Ship Positions

F/V Vivaldi

Last reported at 2017-Dec-10 16:27 UTC. Time now 2017-Dec-12 12:31 UTC.
Position N 43°20' W 001°56'.

Length 23 m.

Type: Fishing. MMSI: 227981000.

Date/timePositionNaut miles runAvg speedWind from/ knotsBaromVisibWave heightAir tempDewpointWater temp
2017-Dec-10 16:27N 43°20' W 001°56'4 8.4
2017-Dec-10 16:00N 43°24' W 001°56'4 8.8
2017-Dec-10 15:30N 43°28' W 001°56'4 8.5
2017-Dec-10 15:00N 43°33' W 001°56'4 8.7
2017-Dec-10 14:30N 43°37' W 001°56'4 8.8
2017-Dec-10 14:00N 43°41' W 001°56'4 8.7
2017-Dec-10 13:30N 43°46' W 001°56'4 8.4
2017-Dec-10 13:00N 43°50' W 001°56'4 7.7
2017-Dec-10 12:30N 43°54' W 001°56'4 7.4
2017-Dec-10 12:00N 43°57' W 001°56'4 7.6
2017-Dec-10 11:30N 44°01' W 001°56'3 6.7
2017-Dec-10 11:00N 44°05' W 001°56'1 2.7
2017-Dec-10 10:30N 44°06' W 001°56'2 3.1
2017-Dec-10 10:00N 44°07' W 001°55'2 3.5
2017-Dec-10 09:30N 44°09' W 001°54'16 1.4
2017-Dec-09 21:47N 44°25' W 001°54'2 0.1
2017-Dec-09 04:21N 44°27' W 001°52'1 3.4
2017-Dec-09 03:59N 44°26' W 001°52'2 3.4
2017-Dec-09 03:30N 44°24' W 001°52'9 3.4
2017-Dec-09 00:56N 44°15' W 001°54'2 3.7
2017-Dec-09 00:30N 44°14' W 001°54'2 0.2
2017-Dec-08 15:31N 44°15' W 001°53'1 3.2
2017-Dec-08 15:20N 44°14' W 001°53'1 1.8
2017-Dec-08 15:00N 44°14' W 001°53'2 3.4
2017-Dec-08 14:27N 44°12' W 001°54'4 3.3
2017-Dec-08 13:21N 44°08' W 001°53'1 3.3
2017-Dec-08 12:59N 44°07' W 001°53'2 3.3
2017-Dec-08 12:29N 44°06' W 001°52'2 3.3
2017-Dec-08 12:00N 44°05' W 001°50'2 3.2
2017-Dec-08 11:30N 44°03' W 001°49'2 3.2
2017-Dec-08 10:52N 44°01' W 001°49'12 2.9
2017-Dec-08 06:30N 44°14' W 001°50'2 1.9
2017-Dec-08 05:14N 44°16' W 001°52'1 3.4
2017-Dec-08 04:58N 44°15' W 001°52'2 3.5
2017-Dec-08 04:30N 44°13' W 001°52'2 3.3
2017-Dec-08 03:59N 44°11' W 001°53'5 3.4
2017-Dec-08 02:35N 44°07' W 001°53'1 3.4
2017-Dec-08 02:19N 44°06' W 001°53'1 3.4
2017-Dec-08 01:54N 44°04' W 001°53'1 3.3
2017-Dec-08 01:30N 44°03' W 001°53'2 3.4
2017-Dec-08 00:55N 44°01' W 001°53'2 3.7
2017-Dec-08 00:26N 44°00' W 001°51'14 3.0
2017-Dec-07 19:49N 44°14' W 001°51'1 3.6
2017-Dec-07 19:30N 44°14' W 001°49'1 2.1
2017-Dec-07 19:00N 44°13' W 001°49'2 3.2
2017-Dec-07 18:30N 44°12' W 001°50'2 3.2
2017-Dec-07 18:00N 44°10' W 001°51'2 3.2
2017-Dec-07 17:29N 44°09' W 001°51'2 3.3
2017-Dec-07 16:54N 44°07' W 001°51'1 3.3
2017-Dec-07 16:30N 44°05' W 001°51'2 3.2
2017-Dec-07 16:00N 44°04' W 001°51'2 3.6
2017-Dec-07 15:26N 44°02' W 001°50'1 1.3
2017-Dec-07 14:40N 44°03' W 001°50'1 3.5
2017-Dec-07 14:25N 44°04' W 001°50'3 3.4
2017-Dec-07 13:29N 44°07' W 001°50'2 3.5
2017-Dec-07 13:00N 44°09' W 001°50'2 3.5
2017-Dec-07 12:25N 44°10' W 001°51'2 3.5
2017-Dec-07 11:55N 44°12' W 001°52'2 3.5
2017-Dec-07 11:18N 44°14' W 001°53'1 3.3
2017-Dec-07 11:00N 44°15' W 001°53'2 2.7
2017-Dec-07 10:11N 44°17' W 001°51'12 3.4
2017-Dec-07 06:35N 44°29' W 001°50'1 3.5
2017-Dec-07 06:26N 44°30' W 001°50'4 1.8
2017-Dec-07 04:20N 44°26' W 001°52'1 3.6
2017-Dec-07 04:00N 44°25' W 001°52'2 3.6
2017-Dec-07 03:30N 44°23' W 001°52'2 3.5
2017-Dec-07 03:00N 44°21' W 001°52'6 3.5
2017-Dec-07 01:12N 44°15' W 001°50'1 3.6
2017-Dec-07 00:59N 44°15' W 001°49'2 3.7
2017-Dec-07 00:30N 44°14' W 001°47'2 3.6
2017-Dec-07 00:00N 44°14' W 001°44'4 2.7
2017-Dec-06 22:23N 44°18' W 001°42'1 3.6
2017-Dec-06 22:00N 44°19' W 001°42'2 3.6
2017-Dec-06 21:30N 44°21' W 001°41'2 3.5
2017-Dec-06 21:00N 44°23' W 001°41'  
2017-Dec-04 10:30N 44°24' W 001°27'2 4.7
2017-Dec-04 10:00N 44°21' W 001°27'3 4.7
2017-Dec-04 09:28N 44°19' W 001°27'4 4.6
2017-Dec-04 08:36N 44°15' W 001°28'0 4.6
2017-Dec-04 08:30N 44°14' W 001°28'2 4.5
2017-Dec-04 08:00N 44°12' W 001°28'2 4.4
2017-Dec-04 07:30N 44°10' W 001°29'4 7.6
2017-Dec-04 07:00N 44°06' W 001°30'510.4
2017-Dec-04 06:30N 44°02' W 001°33'710.4
2017-Dec-04 05:52N 43°56' W 001°37'510.7
2017-Dec-04 05:24N 43°51' W 001°39'410.5
2017-Dec-04 05:00N 43°47' W 001°41'610.4
2017-Dec-04 04:25N 43°41' W 001°44'410.3
2017-Dec-04 04:00N 43°37' W 001°47'1410.4
2017-Dec-04 02:42N 43°25' W 001°53'310.3
2017-Dec-04 02:27N 43°22' W 001°55'2 0.7
2017-Dec-03 23:08N 43°20' W 001°56'1 9.7
2017-Dec-03 23:00N 43°21' W 001°56'610.3
2017-Dec-03 22:24N 43°27' W 001°53'410.2
2017-Dec-03 22:00N 43°31' W 001°52'510.3
2017-Dec-03 21:30N 43°36' W 001°49'510.3
2017-Dec-03 21:00N 43°41' W 001°47'510.2
2017-Dec-03 20:30N 43°46' W 001°45'510.1
2017-Dec-03 20:00N 43°50' W 001°42'5 9.6
2017-Dec-03 19:30N 43°55' W 001°40'5 9.6
2017-Dec-03 19:00N 43°59' W 001°37'5 9.6
2017-Dec-03 18:30N 44°04' W 001°35'5 9.8
2017-Dec-03 18:00N 44°08' W 001°32'5 9.9
2017-Dec-03 17:29N 44°13' W 001°29'5 9.8
2017-Dec-03 17:00N 44°17' W 001°27'0 0.7
2017-Dec-03 16:27N 44°18' W 001°27'1 2.2
2017-Dec-03 15:57N 44°19' W 001°27'2 4.3
2017-Dec-03 15:28N 44°21' W 001°27'2 4.4
2017-Dec-03 15:00N 44°23' W 001°27'2 4.5
2017-Dec-03 14:30N 44°25' W 001°27'2 4.1
2017-Dec-03 14:00N 44°27' W 001°26'0 0.7
2017-Dec-03 13:30N 44°27' W 001°26'0 0.5
2017-Dec-03 12:56N 44°27' W 001°26'0 0.5
2017-Dec-03 12:30N 44°27' W 001°26'0 0.4
2017-Dec-03 12:00N 44°27' W 001°27'0 0.1
2017-Dec-03 11:26N 44°27' W 001°27'1 2.6
2017-Dec-03 11:00N 44°26' W 001°26'2 4.1
2017-Dec-03 10:30N 44°24' W 001°27'2 4.5
2017-Dec-03 10:00N 44°22' W 001°27'2 3.5
2017-Dec-03 09:30N 44°24' W 001°27'0 0.4
2017-Dec-03 09:00N 44°24' W 001°28'2 3.4
2017-Dec-03 08:30N 44°22' W 001°27'2 4.5
2017-Dec-03 08:00N 44°20' W 001°27'2 4.5
2017-Dec-03 07:30N 44°18' W 001°27'2 4.6
2017-Dec-03 07:00N 44°15' W 001°27'5 9.3
2017-Dec-03 06:30N 44°11' W 001°29'510.3
2017-Dec-03 06:00N 44°06' W 001°32'510.3
2017-Dec-03 05:29N 44°01' W 001°35'510.5
2017-Dec-03 05:00N 43°56' W 001°37'510.8
2017-Dec-03 04:30N 43°51' W 001°40'510.8
2017-Dec-03 04:00N 43°46' W 001°42'510.2
2017-Dec-03 03:28N 43°41' W 001°45'510.2
2017-Dec-03 03:00N 43°37' W 001°47'510.2
2017-Dec-03 02:28N 43°32' W 001°50'710.4
2017-Dec-03 01:47N 43°25' W 001°54'410.5
2017-Dec-03 01:21N 43°21' W 001°56'1 0.3
2017-Dec-02 23:04N 43°20' W 001°56'0 8.9
2017-Dec-02 23:00N 43°21' W 001°56'510.1
2017-Dec-02 22:30N 43°25' W 001°53'5 9.9
2017-Dec-02 22:00N 43°30' W 001°51'510.1
2017-Dec-02 21:31N 43°35' W 001°48'510.1
2017-Dec-02 21:00N 43°39' W 001°46'510.2
2017-Dec-02 20:29N 43°44' W 001°43'5 9.9
2017-Dec-02 19:59N 43°49' W 001°41'5 9.9
2017-Dec-02 19:29N 43°54' W 001°38'510.0
2017-Dec-02 18:59N 43°58' W 001°36'510.0
2017-Dec-02 18:29N 44°03' W 001°33'1010.1
2017-Dec-02 17:31N 44°12' W 001°29'0 9.8
2017-Dec-02 17:30N 44°12' W 001°29'2 4.1
2017-Dec-02 16:58N 44°14' W 001°28'2 3.9
2017-Dec-02 16:30N 44°16' W 001°27'2 4.4
2017-Dec-02 16:00N 44°18' W 001°27'2 4.3
2017-Dec-02 15:29N 44°20' W 001°27'1 1.7
2017-Dec-02 14:59N 44°20' W 001°27'1 1.6
2017-Dec-02 14:30N 44°19' W 001°27'1 2.6
2017-Dec-02 14:00N 44°20' W 001°27'2 4.6
2017-Dec-02 13:30N 44°22' W 001°26'1 2.0
2017-Dec-02 13:00N 44°23' W 001°27'2 3.8
2017-Dec-02 12:30N 44°21' W 001°27'2 3.2
2017-Dec-02 12:00N 44°20' W 001°27'1 2.9
2017-Dec-02 11:30N 44°21' W 001°27'2 4.4
2017-Dec-02 10:59N 44°24' W 001°27'1 2.2
2017-Dec-02 10:30N 44°25' W 001°27'1 1.4
2017-Dec-02 10:00N 44°24' W 001°27'2 3.9
2017-Dec-02 09:30N 44°22' W 001°28'2 3.9
2017-Dec-02 09:00N 44°20' W 001°27'3 5.3
2017-Dec-02 08:30N 44°20' W 001°24'1 2.2
2017-Dec-02 08:00N 44°18' W 001°24'2 3.9
2017-Dec-02 07:30N 44°17' W 001°24'2 3.9
2017-Dec-02 07:00N 44°15' W 001°24'0 1.0
2017-Dec-02 06:30N 44°15' W 001°24'2 3.7
2017-Dec-02 06:00N 44°17' W 001°25'2 3.5
2017-Dec-02 05:30N 44°15' W 001°24'2 3.4
2017-Dec-02 05:00N 44°13' W 001°24'2 3.6
2017-Dec-02 04:30N 44°12' W 001°24'2 3.6
2017-Dec-02 04:00N 44°10' W 001°24'2 3.8
2017-Dec-02 03:30N 44°08' W 001°24'2 3.1
2017-Dec-02 03:00N 44°06' W 001°24'1 2.7
2017-Dec-02 02:30N 44°05' W 001°25'0 1.0
2017-Dec-02 02:00N 44°05' W 001°25'1 2.4
2017-Dec-02 01:30N 44°03' W 001°25'2 3.6
2017-Dec-02 01:00N 44°02' W 001°26'2 3.7
2017-Dec-02 00:30N 43°60' W 001°26'2 3.7
2017-Dec-02 00:00N 43°58' W 001°27'2 3.9
2017-Dec-01 23:30N 43°56' W 001°28'2 4.0
2017-Dec-01 23:00N 43°54' W 001°28'2 4.0
2017-Dec-01 22:30N 43°52' W 001°29'2 3.9
2017-Dec-01 22:00N 43°50' W 001°29'2 3.8
2017-Dec-01 21:30N 43°49' W 001°30'2 3.0
2017-Dec-01 21:01N 43°49' W 001°32'0 0.3
2017-Dec-01 20:30N 43°49' W 001°32'1 2.5
2017-Dec-01 20:00N 43°49' W 001°31'1 2.5
2017-Dec-01 19:30N 43°49' W 001°29'1 2.5
2017-Dec-01 19:00N 43°50' W 001°29'0 0.3
2017-Dec-01 18:30N 43°51' W 001°29'1 1.6
2017-Dec-01 17:35N 43°52' W 001°31'0 2.2
2017-Dec-01 17:30N 43°51' W 001°31'1 2.1
2017-Dec-01 17:00N 43°50' W 001°30'0 0.4
2017-Dec-01 16:31N 43°51' W 001°30'1 1.8
2017-Dec-01 15:53N 43°50' W 001°30'10 6.8
2017-Dec-01 14:26N 43°41' W 001°37'4 9.2
2017-Dec-01 14:00N 43°38' W 001°40'4 8.7
2017-Dec-01 13:29N 43°34' W 001°43'4 8.5
2017-Dec-01 13:00N 43°31' W 001°46'6 9.1
2017-Dec-01 12:22N 43°26' W 001°52'4 9.3
2017-Dec-01 11:57N 43°23' W 001°54'3 0.2
2017-Nov-30 23:30N 43°20' W 001°56'4 9.2
2017-Nov-30 23:00N 43°24' W 001°54'5 9.6
2017-Nov-30 22:30N 43°29' W 001°51'5 9.8
2017-Nov-30 22:00N 43°33' W 001°48'5 9.7
2017-Nov-30 21:30N 43°38' W 001°46'5 9.8
2017-Nov-30 21:00N 43°42' W 001°43'5 9.8
2017-Nov-30 20:30N 43°47' W 001°40'510.0
2017-Nov-30 20:00N 43°51' W 001°37'510.0
2017-Nov-30 19:30N 43°56' W 001°35'510.0
2017-Nov-30 19:00N 44°00' W 001°32'510.1
2017-Nov-30 18:30N 44°05' W 001°29'5 9.6
2017-Nov-30 17:59N 44°09' W 001°26'1 2.7
2017-Nov-30 17:30N 44°11' W 001°26'2 3.9
2017-Nov-30 17:00N 44°12' W 001°24'2 3.9
2017-Nov-30 16:30N 44°14' W 001°24'  

Dump ship's entire track history